createdAt,value
2018-12-01T00:02:21.629Z,23.20
2018-12-01T00:04:51.895Z,22.87
2018-12-01T00:07:22.329Z,25.20
2018-12-01T00:09:53.346Z,23.87
2018-12-01T00:12:23.436Z,21.83
2018-12-01T00:14:54.015Z,23.70
2018-12-01T00:17:25.003Z,23.87
2018-12-01T00:19:56.092Z,25.53
2018-12-01T00:22:27.836Z,24.07
2018-12-01T00:24:58.725Z,23.90
2018-12-01T00:27:29.711Z,22.43
2018-12-01T00:30:00.677Z,21.80
2018-12-01T00:32:31.533Z,23.10
2018-12-01T00:35:02.013Z,22.57
2018-12-01T00:37:33.169Z,21.63
2018-12-01T00:40:03.937Z,22.90
2018-12-01T00:42:35.242Z,23.43
2018-12-01T00:45:07.238Z,22.63
2018-12-01T00:47:38.251Z,22.33
2018-12-01T00:50:13.456Z,26.83
2018-12-01T00:52:44.729Z,22.93
2018-12-01T00:55:16.483Z,23.23
2018-12-01T00:57:47.452Z,22.33
2018-12-01T01:00:26.602Z,25.00
2018-12-01T01:02:59.263Z,23.07
2018-12-01T01:05:31.588Z,21.50
2018-12-01T01:08:02.690Z,22.27
2018-12-01T01:10:35.145Z,23.43
2018-12-01T01:13:05.967Z,28.80
2018-12-01T01:15:36.809Z,27.57
2018-12-01T01:18:07.919Z,24.33
2018-12-01T01:20:39.256Z,23.33
2018-12-01T01:23:10.645Z,24.70
2018-12-01T01:25:41.480Z,22.60
2018-12-01T01:28:12.403Z,25.73
2018-12-01T01:30:43.732Z,22.97
2018-12-01T01:33:25.992Z,24.90
2018-12-01T01:35:57.185Z,23.37
2018-12-01T01:38:28.172Z,22.83
2018-12-01T01:41:04.385Z,25.40
2018-12-01T01:43:35.434Z,26.53
2018-12-01T01:46:06.288Z,27.23
2018-12-01T01:48:38.180Z,25.17
2018-12-01T01:51:09.188Z,21.50
2018-12-01T01:53:40.065Z,24.40
2018-12-01T01:56:11.400Z,24.47
2018-12-01T01:58:42.457Z,25.17
2018-12-01T02:01:13.247Z,26.17
2018-12-01T02:03:44.202Z,22.40
2018-12-01T02:06:14.812Z,24.53
2018-12-01T02:08:45.935Z,24.27
2018-12-01T02:11:17.532Z,23.77
2018-12-01T02:13:48.164Z,25.93
2018-12-01T02:16:18.675Z,24.57
2018-12-01T02:18:49.161Z,26.33
2018-12-01T02:21:20.016Z,24.17
2018-12-01T02:23:51.213Z,23.83
2018-12-01T02:26:22.243Z,23.40
2018-12-01T02:28:52.826Z,26.27
2018-12-01T02:31:24.045Z,25.00
2018-12-01T02:33:54.964Z,24.27
2018-12-01T02:36:25.553Z,23.27
2018-12-01T02:38:56.360Z,24.03
2018-12-01T02:41:27.953Z,26.97
2018-12-01T02:44:09.283Z,25.53
2018-12-01T02:46:50.241Z,26.67
2018-12-01T02:49:20.374Z,27.20
2018-12-01T02:51:51.284Z,27.40
2018-12-01T02:54:22.196Z,25.03
2018-12-01T02:56:53.129Z,27.77
2018-12-01T02:59:23.999Z,23.77
2018-12-01T03:01:54.761Z,23.73
2018-12-01T03:04:25.278Z,27.50
2018-12-01T03:06:55.897Z,26.13
2018-12-01T03:09:26.922Z,30.37
2018-12-01T03:11:57.440Z,26.33
2018-12-01T03:14:27.968Z,26.50
2018-12-01T03:16:58.561Z,27.80
2018-12-01T03:19:29.379Z,27.37
2018-12-01T03:22:00.388Z,30.97
2018-12-01T03:24:31.049Z,29.50
2018-12-01T03:27:02.619Z,28.23
2018-12-01T03:29:33.435Z,28.17
2018-12-01T03:32:04.130Z,27.33
2018-12-01T03:34:34.791Z,25.17
2018-12-01T03:37:05.749Z,27.27
2018-12-01T03:39:36.651Z,29.60
2018-12-01T03:42:07.701Z,27.73
2018-12-01T03:44:37.875Z,26.73
2018-12-01T03:47:08.730Z,26.13
2018-12-01T03:49:39.671Z,28.97
2018-12-01T03:52:10.483Z,27.17
2018-12-01T03:54:41.137Z,29.17
2018-12-01T03:57:11.848Z,26.33
2018-12-01T03:59:43.039Z,33.00
2018-12-01T04:02:13.787Z,25.17
2018-12-01T04:04:44.786Z,27.33
2018-12-01T04:07:16.914Z,26.73
2018-12-01T04:09:48.116Z,28.63
2018-12-01T04:12:19.332Z,23.53
2018-12-01T04:14:50.483Z,27.50
2018-12-01T04:17:21.458Z,27.80
2018-12-01T04:19:51.697Z,29.47
2018-12-01T04:22:21.793Z,26.43
2018-12-01T04:24:52.920Z,25.63
2018-12-01T04:27:23.366Z,24.87
2018-12-01T04:29:54.092Z,26.90
2018-12-01T04:32:24.802Z,29.30
2018-12-01T04:34:55.477Z,30.10
2018-12-01T04:37:26.579Z,28.03
2018-12-01T04:39:57.107Z,27.40
2018-12-01T04:42:27.954Z,29.63
2018-12-01T04:44:59.486Z,33.30
2018-12-01T04:47:29.766Z,29.13
2018-12-01T04:50:01.026Z,28.60
2018-12-01T04:52:31.567Z,29.67
2018-12-01T04:55:02.222Z,27.50
2018-12-01T04:57:32.387Z,26.63
2018-12-01T05:00:03.308Z,28.83
2018-12-01T05:02:34.370Z,31.40
2018-12-01T05:05:05.553Z,30.40
2018-12-01T05:07:36.602Z,29.37
2018-12-01T05:10:15.601Z,28.20
2018-12-01T05:12:46.461Z,30.70
2018-12-01T05:15:17.642Z,28.07
2018-12-01T05:17:48.865Z,25.40
2018-12-01T05:20:23.400Z,29.10
2018-12-01T05:22:54.353Z,26.47
2018-12-01T05:25:25.053Z,27.87
2018-12-01T05:27:55.806Z,30.77
2018-12-01T05:30:26.756Z,26.33
2018-12-01T05:32:57.575Z,29.47
2018-12-01T05:35:28.551Z,30.57
2018-12-01T05:37:59.278Z,28.33
2018-12-01T05:40:30.662Z,25.47
2018-12-01T05:43:00.616Z,26.93
2018-12-01T05:45:30.440Z,27.10
2018-12-01T05:48:00.236Z,30.67
2018-12-01T05:50:30.174Z,28.53
2018-12-01T05:53:00.134Z,27.80
2018-12-01T05:55:30.106Z,27.43
2018-12-01T05:57:59.962Z,29.00
2018-12-01T06:00:29.752Z,28.33
2018-12-01T06:02:59.686Z,27.13
2018-12-01T06:05:29.478Z,27.83
2018-12-01T06:07:59.337Z,27.87
2018-12-01T06:10:29.181Z,27.77
2018-12-01T06:13:02.024Z,27.13
2018-12-01T06:15:31.850Z,30.53
2018-12-01T06:18:01.799Z,29.43
2018-12-01T06:20:31.687Z,27.13
2018-12-01T06:23:01.518Z,29.33
2018-12-01T06:25:31.289Z,29.83
2018-12-01T06:28:01.228Z,30.57
2018-12-01T06:30:31.055Z,29.53
2018-12-01T06:33:00.967Z,29.90
2018-12-01T06:35:31.030Z,27.17
2018-12-01T06:38:00.872Z,26.50
2018-12-01T06:40:30.821Z,26.60
2018-12-01T06:43:00.655Z,25.40
2018-12-01T06:45:30.504Z,25.93
2018-12-01T06:48:00.273Z,24.73
2018-12-01T06:50:30.192Z,23.30
2018-12-01T06:53:00.013Z,23.33
2018-12-01T06:55:29.924Z,25.93
2018-12-01T06:57:59.885Z,25.07
2018-12-01T07:00:29.889Z,23.53
2018-12-01T07:02:59.849Z,26.27
2018-12-01T07:05:29.672Z,23.83
2018-12-01T07:07:59.421Z,27.10
2018-12-01T07:10:29.390Z,20.77
2018-12-01T07:13:01.732Z,24.67
2018-12-01T07:15:37.112Z,20.50
2018-12-01T07:18:20.456Z,22.20
2018-12-01T07:20:50.401Z,20.87
2018-12-01T07:23:20.536Z,19.07
2018-12-01T07:25:50.313Z,22.03
2018-12-01T07:28:21.459Z,17.87
2018-12-01T07:30:50.390Z,17.90
2018-12-01T07:33:20.367Z,17.37
2018-12-01T07:35:50.344Z,13.73
2018-12-01T07:38:20.302Z,17.87
2018-12-01T07:40:50.306Z,16.47
2018-12-01T07:43:20.295Z,16.63
2018-12-01T07:45:50.072Z,16.40
2018-12-01T07:48:19.949Z,17.47
2018-12-01T07:50:49.859Z,18.07
2018-12-01T07:53:19.774Z,21.63
2018-12-01T07:55:49.806Z,17.47
2018-12-01T07:58:19.718Z,17.43
2018-12-01T08:00:49.652Z,14.43
2018-12-01T08:03:19.560Z,16.07
2018-12-01T08:05:49.337Z,17.20
2018-12-01T08:08:19.331Z,14.00
2018-12-01T08:10:49.254Z,14.00
2018-12-01T08:13:19.090Z,18.73
2018-12-01T08:15:48.904Z,16.87
2018-12-01T08:18:18.869Z,17.90
2018-12-01T08:20:48.815Z,18.17
2018-12-01T08:23:18.803Z,18.43
2018-12-01T08:25:48.551Z,17.87
2018-12-01T08:28:21.101Z,15.43
2018-12-01T08:30:51.657Z,16.57
2018-12-01T08:33:21.848Z,18.90
2018-12-01T08:35:51.824Z,19.57
2018-12-01T08:38:21.744Z,13.37
2018-12-01T08:40:51.916Z,15.20
2018-12-01T08:43:21.781Z,18.20
2018-12-01T08:45:51.585Z,13.53
2018-12-01T08:48:21.369Z,20.27
2018-12-01T08:50:51.322Z,17.60
2018-12-01T08:53:21.258Z,17.13
2018-12-01T08:55:51.505Z,18.93
2018-12-01T08:58:21.481Z,16.03
2018-12-01T09:00:51.648Z,20.60
2018-12-01T09:03:23.783Z,17.73
2018-12-01T09:05:54.190Z,17.90
2018-12-01T09:08:24.055Z,18.10
2018-12-01T09:10:54.037Z,17.23
2018-12-01T09:13:23.984Z,15.00
2018-12-01T09:15:53.923Z,16.50
2018-12-01T09:18:23.822Z,16.53
2018-12-01T09:20:53.917Z,17.90
2018-12-01T09:23:23.988Z,18.40
2018-12-01T09:25:54.224Z,19.87
2018-12-01T09:28:24.120Z,14.87
2018-12-01T09:30:54.155Z,14.97
2018-12-01T09:33:24.232Z,17.93
2018-12-01T09:35:54.264Z,17.23
2018-12-01T09:38:24.583Z,21.90
2018-12-01T09:40:54.729Z,16.63
2018-12-01T09:43:24.840Z,18.37
2018-12-01T09:45:54.724Z,17.90
2018-12-01T09:48:24.540Z,17.07
2018-12-01T09:50:54.540Z,19.00
2018-12-01T09:53:24.617Z,20.27
2018-12-01T09:55:55.020Z,17.97
2018-12-01T09:58:25.039Z,17.97
2018-12-01T10:00:55.001Z,19.87
2018-12-01T10:03:25.070Z,21.67
2018-12-01T10:05:54.925Z,19.13
2018-12-01T10:09:53.815Z,22.13
2018-12-01T10:12:23.706Z,18.33
2018-12-01T10:14:53.693Z,18.90
2018-12-01T10:17:23.836Z,19.37
2018-12-01T10:19:53.896Z,17.27
2018-12-01T10:22:23.935Z,20.30
2018-12-01T10:24:53.857Z,18.93
2018-12-01T10:27:23.773Z,17.73
2018-12-01T10:29:53.857Z,19.73
2018-12-01T10:32:23.981Z,21.70
2018-12-01T10:34:53.930Z,22.40
2018-12-01T10:37:24.017Z,17.53
2018-12-01T10:39:53.875Z,19.83
2018-12-01T10:42:23.959Z,21.57
2018-12-01T10:44:53.744Z,22.73
2018-12-01T10:47:23.552Z,22.00
2018-12-01T10:49:53.337Z,24.17
2018-12-01T10:52:23.295Z,23.00
2018-12-01T10:54:53.192Z,20.33
2018-12-01T10:57:23.021Z,21.47
2018-12-01T10:59:52.941Z,23.37
2018-12-01T11:02:27.876Z,20.40
2018-12-01T11:04:57.678Z,24.37
2018-12-01T11:07:27.500Z,23.53
2018-12-01T11:09:57.345Z,22.83
2018-12-01T11:12:27.127Z,29.33
2018-12-01T11:14:57.133Z,23.63
2018-12-01T11:17:27.047Z,27.80
2018-12-01T11:19:57.117Z,25.87
2018-12-01T11:22:27.155Z,26.23
2018-12-01T11:24:57.341Z,25.17
2018-12-01T11:27:27.160Z,28.33
2018-12-01T11:29:57.160Z,28.03
2018-12-01T11:32:26.999Z,26.97
2018-12-01T11:34:56.939Z,26.30
2018-12-01T11:37:27.033Z,28.07
2018-12-01T11:39:56.952Z,26.63
2018-12-01T11:42:27.010Z,30.43
2018-12-01T11:44:56.967Z,26.50
2018-12-01T11:47:27.028Z,28.40
2018-12-01T11:49:57.058Z,25.27
2018-12-01T11:52:27.103Z,26.77
2018-12-01T11:54:57.121Z,26.17
2018-12-01T11:57:27.110Z,28.17
2018-12-01T11:59:57.061Z,28.83
2018-12-01T12:02:26.972Z,24.43
2018-12-01T12:04:57.029Z,25.23
2018-12-01T12:07:37.745Z,23.63
2018-12-01T12:10:07.792Z,25.23
2018-12-01T12:12:37.623Z,23.70
2018-12-01T12:15:09.572Z,23.93
2018-12-01T12:17:39.846Z,27.20
2018-12-01T12:20:11.657Z,27.70
2018-12-01T12:22:41.592Z,25.33
2018-12-01T12:25:11.977Z,27.33
2018-12-01T12:27:41.772Z,26.67
2018-12-01T12:30:15.847Z,25.33
2018-12-01T12:32:46.588Z,27.57
2018-12-01T12:35:17.656Z,26.50
2018-12-01T12:37:48.802Z,27.73
2018-12-01T12:40:21.143Z,28.70
2018-12-01T12:42:51.503Z,32.73
2018-12-01T12:45:21.306Z,29.63
2018-12-01T12:47:51.264Z,30.63
2018-12-01T12:50:21.614Z,33.07
2018-12-01T12:52:52.852Z,33.10
2018-12-01T12:55:24.911Z,34.53
2018-12-01T12:57:55.277Z,31.63
2018-12-01T13:00:26.285Z,34.07
2018-12-01T13:03:05.383Z,34.73
2018-12-01T13:05:45.884Z,34.37
2018-12-01T13:08:20.072Z,32.53
2018-12-01T13:10:49.989Z,32.83
2018-12-01T13:13:20.040Z,33.77
2018-12-01T13:15:49.952Z,33.40
2018-12-01T13:18:19.841Z,38.00
2018-12-01T13:20:49.955Z,31.87
2018-12-01T13:23:19.925Z,31.43
2018-12-01T13:25:49.701Z,28.87
2018-12-01T13:28:21.366Z,33.30
2018-12-01T13:30:58.435Z,26.37
2018-12-01T13:33:28.705Z,26.60
2018-12-01T13:35:59.160Z,28.60
2018-12-01T13:38:29.357Z,29.93
2018-12-01T13:40:59.368Z,27.93
2018-12-01T13:43:29.283Z,33.13
2018-12-01T13:45:59.280Z,31.77
2018-12-01T13:48:29.140Z,31.87
2018-12-01T13:50:59.061Z,33.50
2018-12-01T13:53:29.127Z,36.60
2018-12-01T13:55:59.010Z,34.83
2018-12-01T13:58:28.881Z,33.23
2018-12-01T14:00:58.827Z,31.87
2018-12-01T14:03:28.751Z,36.37
2018-12-01T14:05:58.583Z,33.17
2018-12-01T14:08:28.344Z,30.97
2018-12-01T14:10:58.372Z,35.77
2018-12-01T14:13:28.281Z,39.93
2018-12-01T14:15:58.247Z,34.60
2018-12-01T14:18:28.185Z,31.93
2018-12-01T14:20:58.206Z,32.60
2018-12-01T14:23:28.058Z,33.40
2018-12-01T14:25:57.897Z,37.60
2018-12-01T14:28:27.682Z,35.83
2018-12-01T14:30:57.630Z,39.80
2018-12-01T14:33:27.609Z,32.93
2018-12-01T14:35:57.583Z,37.13
2018-12-01T14:38:27.581Z,39.27
2018-12-01T14:40:57.597Z,33.40
2018-12-01T14:43:27.514Z,33.73
2018-12-01T14:45:57.373Z,34.87
2018-12-01T14:48:27.243Z,35.00
2018-12-01T14:50:57.232Z,46.30
2018-12-01T14:53:27.223Z,35.77
2018-12-01T14:55:57.287Z,38.53
2018-12-01T14:58:27.259Z,32.87
2018-12-01T15:00:57.121Z,39.70
2018-12-01T15:03:27.159Z,34.83
2018-12-01T15:05:57.090Z,35.55
2018-12-01T15:08:26.980Z,35.33
2018-12-01T15:10:57.085Z,37.20
2018-12-01T15:13:27.079Z,40.47
2018-12-01T15:15:57.068Z,38.47
2018-12-01T15:18:27.023Z,38.57
2018-12-01T15:20:57.910Z,38.10
2018-12-01T15:23:27.840Z,35.60
2018-12-01T15:25:57.690Z,36.17
2018-12-01T15:28:27.612Z,34.83
2018-12-01T15:30:57.756Z,32.73
2018-12-01T15:34:57.144Z,38.90
2018-12-01T15:37:27.381Z,31.97
2018-12-01T15:39:57.389Z,36.67
2018-12-01T15:42:27.469Z,33.17
2018-12-01T15:44:57.538Z,37.83
2018-12-01T15:47:27.459Z,33.90
2018-12-01T15:49:57.509Z,32.67
2018-12-01T15:52:27.597Z,34.27
2018-12-01T15:54:57.706Z,30.87
2018-12-01T15:57:27.968Z,33.20
2018-12-01T15:59:58.053Z,35.53
2018-12-01T16:02:28.112Z,32.10
2018-12-01T16:04:58.123Z,32.57
2018-12-01T16:07:28.231Z,32.73
2018-12-01T16:09:58.346Z,31.57
2018-12-01T16:12:28.369Z,30.87
2018-12-01T16:14:58.459Z,32.13
2018-12-01T16:17:28.395Z,31.60
2018-12-01T16:19:58.442Z,35.57
2018-12-01T16:22:28.515Z,30.40
2018-12-01T16:24:58.467Z,29.13
2018-12-01T16:27:28.305Z,32.77
2018-12-01T16:29:58.231Z,35.30
2018-12-01T16:32:28.147Z,34.63
2018-12-01T16:34:59.218Z,34.57
2018-12-01T16:37:29.203Z,30.07
2018-12-01T16:39:59.410Z,32.63
2018-12-01T16:42:29.524Z,30.87
2018-12-01T16:44:59.588Z,34.90
2018-12-01T16:47:29.529Z,31.77
2018-12-01T16:49:59.556Z,32.87
2018-12-01T16:52:29.560Z,34.43
2018-12-01T16:54:59.867Z,34.13
2018-12-01T16:57:29.859Z,33.50
2018-12-01T16:59:59.974Z,33.33
2018-12-01T17:02:29.921Z,31.87
2018-12-01T17:04:59.749Z,35.37
2018-12-01T17:07:29.567Z,32.50
2018-12-01T17:09:59.505Z,34.93
2018-12-01T17:12:29.417Z,36.63
2018-12-01T17:14:59.566Z,36.93
2018-12-01T17:17:30.648Z,37.10
2018-12-01T17:20:01.627Z,34.13
2018-12-01T17:22:31.637Z,36.93
2018-12-01T17:25:02.054Z,33.40
2018-12-01T17:27:32.131Z,33.30
2018-12-01T17:30:02.129Z,32.93
2018-12-01T17:32:32.070Z,35.90
2018-12-01T17:35:02.045Z,33.00
2018-12-01T17:37:31.902Z,37.73
2018-12-01T17:40:01.847Z,33.57
2018-12-01T17:42:31.698Z,34.93
2018-12-01T17:45:01.635Z,38.70
2018-12-01T17:47:31.591Z,32.80
2018-12-01T17:50:01.411Z,35.40
2018-12-01T17:52:31.386Z,36.90
2018-12-01T17:55:02.472Z,34.00
2018-12-01T17:57:32.348Z,34.40
2018-12-01T18:00:02.182Z,36.53
2018-12-01T18:02:32.042Z,35.47
2018-12-01T18:05:02.138Z,38.60
2018-12-01T18:07:32.067Z,32.23
2018-12-01T18:10:02.051Z,33.43
2018-12-01T18:12:32.003Z,34.33
2018-12-01T18:15:01.877Z,32.00
2018-12-01T18:17:31.911Z,32.77
2018-12-01T18:20:02.659Z,31.70
2018-12-01T18:22:32.690Z,37.07
2018-12-01T18:25:02.650Z,34.60
2018-12-01T18:27:32.727Z,35.33
2018-12-01T18:30:02.638Z,34.17
2018-12-01T18:32:32.525Z,33.40
2018-12-01T18:35:02.455Z,34.17
2018-12-01T18:37:32.290Z,34.83
2018-12-01T18:40:02.230Z,38.67
2018-12-01T18:42:32.062Z,40.40
2018-12-01T18:45:01.970Z,38.57
2018-12-01T18:47:31.849Z,49.23
2018-12-01T18:50:02.033Z,50.00
2018-12-01T18:52:31.876Z,47.53
2018-12-01T18:55:02.034Z,55.23
2018-12-01T18:57:31.935Z,50.23
2018-12-01T19:00:01.877Z,56.53
2018-12-01T19:02:31.877Z,58.57
2018-12-01T19:05:01.752Z,47.87
2018-12-01T19:07:31.676Z,49.53
2018-12-01T19:10:01.688Z,52.47
2018-12-01T19:12:31.739Z,51.70
2018-12-01T19:15:01.893Z,47.60
2018-12-01T19:17:31.875Z,55.07
2018-12-01T19:20:01.847Z,55.30
2018-12-01T19:22:31.772Z,61.83
2018-12-01T19:25:01.815Z,68.67
2018-12-01T19:27:31.787Z,72.47
2018-12-01T19:30:05.116Z,71.57
2018-12-01T19:32:31.907Z,73.23
2018-12-01T19:35:01.983Z,76.87
2018-12-01T19:37:31.909Z,78.10
2018-12-01T19:40:02.011Z,80.80
2018-12-01T19:42:32.054Z,81.30
2018-12-01T19:45:02.033Z,74.87
2018-12-01T19:47:31.886Z,77.50
2018-12-01T19:50:01.782Z,84.50
2018-12-01T19:52:31.851Z,72.00
2018-12-01T19:55:01.770Z,79.47
2018-12-01T19:57:31.543Z,81.50
2018-12-01T20:00:01.428Z,77.23
2018-12-01T20:02:31.495Z,82.73
2018-12-01T20:05:01.452Z,81.90
2018-12-01T20:07:31.265Z,85.03
2018-12-01T20:10:01.364Z,89.23
2018-12-01T20:12:31.273Z,87.53
2018-12-01T20:15:01.310Z,93.10
2018-12-01T20:17:31.110Z,89.10
2018-12-01T20:20:01.095Z,91.47
2018-12-01T20:22:31.058Z,94.67
2018-12-01T20:25:01.116Z,102.10
2018-12-01T20:27:30.982Z,97.60
2018-12-01T20:30:00.858Z,90.93
2018-12-01T20:32:30.699Z,100.60
2018-12-01T20:35:00.571Z,98.73
2018-12-01T20:37:30.420Z,99.83
2018-12-01T20:40:00.564Z,96.03
2018-12-01T20:42:30.508Z,86.40
2018-12-01T20:45:01.523Z,88.37
2018-12-01T20:47:32.448Z,82.17
2018-12-01T20:50:03.681Z,76.30
2018-12-01T20:52:34.808Z,76.27
2018-12-01T20:55:10.764Z,74.20
2018-12-01T20:57:41.769Z,75.67
2018-12-01T21:00:14.592Z,75.73
2018-12-01T21:02:46.121Z,71.73
2018-12-01T21:05:25.059Z,71.93
2018-12-01T21:07:56.039Z,73.37
2018-12-01T21:10:29.328Z,74.93
2018-12-01T21:13:01.411Z,81.00
2018-12-01T21:15:32.234Z,77.07
2018-12-01T21:18:03.910Z,68.23
2018-12-01T21:20:33.938Z,67.47
2018-12-01T21:23:04.830Z,67.70
2018-12-01T21:25:36.499Z,62.80
2018-12-01T21:28:05.801Z,70.90
2018-12-01T21:30:37.171Z,64.87
2018-12-01T21:33:12.886Z,58.43
2018-12-01T21:35:44.070Z,63.03
2018-12-01T21:38:15.316Z,59.57
2018-12-01T21:40:46.591Z,57.00
2018-12-01T21:43:17.648Z,57.33
2018-12-01T21:45:48.780Z,51.17
2018-12-01T21:48:20.348Z,54.40
2018-12-01T21:50:51.787Z,57.30
2018-12-01T21:53:25.317Z,59.17
2018-12-01T21:55:56.712Z,54.67
2018-12-01T21:58:27.929Z,57.97
2018-12-01T22:01:00.850Z,53.10
2018-12-01T22:03:33.025Z,56.87
2018-12-01T22:06:05.427Z,50.87
2018-12-01T22:08:37.040Z,54.40
2018-12-01T22:11:09.122Z,51.97
2018-12-01T22:13:39.896Z,52.50
2018-12-01T22:16:11.446Z,50.17
2018-12-01T22:18:42.504Z,49.67
2018-12-01T22:21:13.019Z,52.07
2018-12-01T22:23:45.750Z,53.47
2018-12-01T22:26:16.747Z,50.07
2018-12-01T22:28:47.559Z,48.30
2018-12-01T22:31:18.859Z,47.13
2018-12-01T22:33:50.021Z,46.30
2018-12-01T22:36:21.207Z,49.50
2018-12-01T22:38:52.184Z,49.70
2018-12-01T22:41:23.250Z,51.80
2018-12-01T22:43:53.798Z,48.30
2018-12-01T22:46:24.723Z,49.13
2018-12-01T22:48:55.570Z,54.50
2018-12-01T22:51:26.850Z,46.70
2018-12-01T22:53:58.137Z,67.40
2018-12-01T22:56:29.138Z,58.03
2018-12-01T22:58:59.559Z,68.80
2018-12-01T23:01:31.209Z,65.83
2018-12-01T23:04:02.322Z,51.57
2018-12-01T23:06:33.053Z,54.73
2018-12-01T23:09:04.239Z,52.47
2018-12-01T23:11:34.844Z,52.87
2018-12-01T23:14:05.674Z,55.60
2018-12-01T23:16:36.572Z,61.23
2018-12-01T23:19:08.115Z,53.97
2018-12-01T23:21:39.053Z,55.00
2018-12-01T23:24:10.460Z,66.67
2018-12-01T23:26:41.575Z,71.30
2018-12-01T23:29:12.896Z,71.17
2018-12-01T23:31:43.827Z,64.50
2018-12-01T23:34:14.913Z,68.50
2018-12-01T23:36:46.036Z,73.73
2018-12-01T23:39:16.339Z,75.63
2018-12-01T23:41:47.512Z,65.80
2018-12-01T23:44:34.345Z,70.53
2018-12-01T23:47:05.559Z,69.53
2018-12-01T23:49:36.338Z,73.70
2018-12-01T23:52:06.849Z,68.73
2018-12-01T23:54:38.128Z,63.93
2018-12-01T23:57:09.655Z,69.17
2018-12-01T23:59:40.501Z,63.03
